sensor_id;sensor_type;location;lat;lon;timestamp;P1;durP1;ratioP1;P2;durP2;ratioP2
11514;SDS011;5814;41.936;25.556;2023-02-20T00:00:55;11.87;;;10.93;;
11514;SDS011;5814;41.936;25.556;2023-02-20T00:03:22;12.13;;;11.23;;
11514;SDS011;5814;41.936;25.556;2023-02-20T00:05:49;11.30;;;10.50;;
11514;SDS011;5814;41.936;25.556;2023-02-20T00:08:16;12.60;;;11.70;;
11514;SDS011;5814;41.936;25.556;2023-02-20T00:10:44;11.93;;;10.93;;
11514;SDS011;5814;41.936;25.556;2023-02-20T00:13:11;12.20;;;11.43;;
11514;SDS011;5814;41.936;25.556;2023-02-20T00:15:38;11.20;;;10.50;;
11514;SDS011;5814;41.936;25.556;2023-02-20T00:18:05;10.43;;;9.53;;
11514;SDS011;5814;41.936;25.556;2023-02-20T00:20:32;10.80;;;10.07;;
11514;SDS011;5814;41.936;25.556;2023-02-20T00:22:59;10.43;;;9.53;;
11514;SDS011;5814;41.936;25.556;2023-02-20T00:25:27;10.10;;;9.47;;
11514;SDS011;5814;41.936;25.556;2023-02-20T00:27:54;9.60;;;8.90;;
11514;SDS011;5814;41.936;25.556;2023-02-20T00:30:22;10.70;;;9.90;;
11514;SDS011;5814;41.936;25.556;2023-02-20T00:32:49;9.73;;;9.03;;
11514;SDS011;5814;41.936;25.556;2023-02-20T00:35:16;9.97;;;9.17;;
11514;SDS011;5814;41.936;25.556;2023-02-20T00:37:44;9.70;;;9.00;;
11514;SDS011;5814;41.936;25.556;2023-02-20T00:40:11;9.23;;;8.60;;
11514;SDS011;5814;41.936;25.556;2023-02-20T00:42:39;9.53;;;8.90;;
11514;SDS011;5814;41.936;25.556;2023-02-20T00:45:06;9.90;;;9.20;;
11514;SDS011;5814;41.936;25.556;2023-02-20T00:47:34;9.63;;;8.90;;
11514;SDS011;5814;41.936;25.556;2023-02-20T00:50:02;9.20;;;8.50;;
11514;SDS011;5814;41.936;25.556;2023-02-20T00:52:29;9.83;;;9.13;;
11514;SDS011;5814;41.936;25.556;2023-02-20T00:54:56;9.67;;;8.87;;
11514;SDS011;5814;41.936;25.556;2023-02-20T00:57:23;9.80;;;8.47;;
11514;SDS011;5814;41.936;25.556;2023-02-20T00:59:51;9.80;;;9.10;;
11514;SDS011;5814;41.936;25.556;2023-02-20T01:02:18;9.30;;;8.60;;
11514;SDS011;5814;41.936;25.556;2023-02-20T01:04:45;9.43;;;8.83;;
11514;SDS011;5814;41.936;25.556;2023-02-20T01:07:12;9.23;;;8.53;;
11514;SDS011;5814;41.936;25.556;2023-02-20T01:09:39;9.23;;;8.53;;
11514;SDS011;5814;41.936;25.556;2023-02-20T01:12:07;9.40;;;8.70;;
11514;SDS011;5814;41.936;25.556;2023-02-20T01:14:34;9.67;;;9.00;;
11514;SDS011;5814;41.936;25.556;2023-02-20T01:17:01;9.63;;;8.80;;
11514;SDS011;5814;41.936;25.556;2023-02-20T01:19:28;9.60;;;8.93;;
11514;SDS011;5814;41.936;25.556;2023-02-20T01:21:55;9.83;;;9.13;;
11514;SDS011;5814;41.936;25.556;2023-02-20T01:24:22;9.40;;;8.80;;
11514;SDS011;5814;41.936;25.556;2023-02-20T01:26:50;10.03;;;9.13;;
11514;SDS011;5814;41.936;25.556;2023-02-20T01:29:17;10.97;;;9.90;;
11514;SDS011;5814;41.936;25.556;2023-02-20T01:31:46;11.07;;;9.53;;
11514;SDS011;5814;41.936;25.556;2023-02-20T01:34:14;10.97;;;9.87;;
11514;SDS011;5814;41.936;25.556;2023-02-20T01:36:46;10.23;;;9.40;;
11514;SDS011;5814;41.936;25.556;2023-02-20T01:39:14;9.90;;;9.13;;
11514;SDS011;5814;41.936;25.556;2023-02-20T01:41:40;10.40;;;9.57;;
11514;SDS011;5814;41.936;25.556;2023-02-20T01:44:11;10.40;;;9.60;;
11514;SDS011;5814;41.936;25.556;2023-02-20T01:46:41;10.77;;;9.97;;
11514;SDS011;5814;41.936;25.556;2023-02-20T01:49:11;11.27;;;10.37;;
11514;SDS011;5814;41.936;25.556;2023-02-20T01:51:38;11.23;;;10.17;;
11514;SDS011;5814;41.936;25.556;2023-02-20T01:54:05;11.30;;;10.50;;
11514;SDS011;5814;41.936;25.556;2023-02-20T01:56:31;10.63;;;9.60;;
11514;SDS011;5814;41.936;25.556;2023-02-20T01:58:58;11.20;;;10.30;;
11514;SDS011;5814;41.936;25.556;2023-02-20T02:01:26;10.93;;;9.93;;
11514;SDS011;5814;41.936;25.556;2023-02-20T02:03:55;10.77;;;9.80;;
11514;SDS011;5814;41.936;25.556;2023-02-20T02:06:20;10.90;;;9.80;;
11514;SDS011;5814;41.936;25.556;2023-02-20T02:08:47;11.27;;;10.37;;
11514;SDS011;5814;41.936;25.556;2023-02-20T02:11:15;10.97;;;9.97;;
11514;SDS011;5814;41.936;25.556;2023-02-20T02:13:42;13.87;;;10.10;;
11514;SDS011;5814;41.936;25.556;2023-02-20T02:16:25;11.23;;;10.23;;
11514;SDS011;5814;41.936;25.556;2023-02-20T02:20:06;11.07;;;10.17;;
11514;SDS011;5814;41.936;25.556;2023-02-20T02:22:02;11.20;;;10.30;;
11514;SDS011;5814;41.936;25.556;2023-02-20T02:27:29;10.70;;;9.60;;
11514;SDS011;5814;41.936;25.556;2023-02-20T02:30:17;10.70;;;9.73;;
11514;SDS011;5814;41.936;25.556;2023-02-20T02:33:56;10.80;;;9.97;;
11514;SDS011;5814;41.936;25.556;2023-02-20T02:35:36;10.50;;;9.70;;
11514;SDS011;5814;41.936;25.556;2023-02-20T02:38:13;10.80;;;9.90;;
11514;SDS011;5814;41.936;25.556;2023-02-20T02:40:42;9.83;;;9.13;;
11514;SDS011;5814;41.936;25.556;2023-02-20T02:43:12;10.27;;;9.47;;
11514;SDS011;5814;41.936;25.556;2023-02-20T02:45:44;10.90;;;10.00;;
11514;SDS011;5814;41.936;25.556;2023-02-20T02:48:25;11.17;;;10.23;;
11514;SDS011;5814;41.936;25.556;2023-02-20T02:50:52;11.13;;;10.10;;
11514;SDS011;5814;41.936;25.556;2023-02-20T02:53:19;10.93;;;10.07;;
11514;SDS011;5814;41.936;25.556;2023-02-20T02:55:46;10.67;;;9.77;;
11514;SDS011;5814;41.936;25.556;2023-02-20T02:58:13;10.33;;;9.60;;
11514;SDS011;5814;41.936;25.556;2023-02-20T03:00:42;11.77;;;10.63;;
11514;SDS011;5814;41.936;25.556;2023-02-20T03:03:27;11.20;;;10.20;;
11514;SDS011;5814;41.936;25.556;2023-02-20T03:06:00;11.60;;;10.60;;
11514;SDS011;5814;41.936;25.556;2023-02-20T03:08:32;11.33;;;10.33;;
11514;SDS011;5814;41.936;25.556;2023-02-20T03:11:07;11.40;;;10.60;;
11514;SDS011;5814;41.936;25.556;2023-02-20T03:13:35;11.33;;;10.43;;
11514;SDS011;5814;41.936;25.556;2023-02-20T03:16:06;12.57;;;11.23;;
11514;SDS011;5814;41.936;25.556;2023-02-20T03:18:35;12.13;;;11.13;;
11514;SDS011;5814;41.936;25.556;2023-02-20T03:21:02;11.73;;;10.93;;
11514;SDS011;5814;41.936;25.556;2023-02-20T03:23:30;11.40;;;10.50;;
11514;SDS011;5814;41.936;25.556;2023-02-20T03:25:59;11.57;;;10.63;;
11514;SDS011;5814;41.936;25.556;2023-02-20T03:28:29;12.87;;;11.93;;
11514;SDS011;5814;41.936;25.556;2023-02-20T03:30:55;12.87;;;11.87;;
11514;SDS011;5814;41.936;25.556;2023-02-20T03:33:26;11.80;;;11.00;;
11514;SDS011;5814;41.936;25.556;2023-02-20T03:35:56;11.77;;;10.77;;
11514;SDS011;5814;41.936;25.556;2023-02-20T03:38:29;12.57;;;11.67;;
11514;SDS011;5814;41.936;25.556;2023-02-20T03:41:02;12.20;;;11.23;;
11514;SDS011;5814;41.936;25.556;2023-02-20T03:43:34;12.83;;;11.80;;
11514;SDS011;5814;41.936;25.556;2023-02-20T03:46:05;11.87;;;10.90;;
11514;SDS011;5814;41.936;25.556;2023-02-20T03:48:33;13.60;;;12.60;;
11514;SDS011;5814;41.936;25.556;2023-02-20T03:51:10;12.60;;;11.60;;
11514;SDS011;5814;41.936;25.556;2023-02-20T03:53:38;11.57;;;10.77;;
11514;SDS011;5814;41.936;25.556;2023-02-20T03:56:07;12.70;;;11.57;;
11514;SDS011;5814;41.936;25.556;2023-02-20T03:58:36;13.33;;;11.20;;
11514;SDS011;5814;41.936;25.556;2023-02-20T04:01:02;12.23;;;11.30;;
11514;SDS011;5814;41.936;25.556;2023-02-20T04:03:29;12.50;;;11.67;;
11514;SDS011;5814;41.936;25.556;2023-02-20T04:05:56;12.00;;;11.10;;
11514;SDS011;5814;41.936;25.556;2023-02-20T04:08:32;11.80;;;10.77;;
11514;SDS011;5814;41.936;25.556;2023-02-20T04:11:03;13.17;;;11.80;;
11514;SDS011;5814;41.936;25.556;2023-02-20T04:13:30;12.27;;;11.30;;
11514;SDS011;5814;41.936;25.556;2023-02-20T04:15:58;12.73;;;11.60;;
11514;SDS011;5814;41.936;25.556;2023-02-20T04:18:24;12.63;;;11.73;;
11514;SDS011;5814;41.936;25.556;2023-02-20T04:20:52;13.83;;;11.23;;
11514;SDS011;5814;41.936;25.556;2023-02-20T04:23:19;33.03;;;30.07;;
11514;SDS011;5814;41.936;25.556;2023-02-20T04:25:55;25.13;;;22.67;;
11514;SDS011;5814;41.936;25.556;2023-02-20T04:28:23;15.77;;;14.47;;
11514;SDS011;5814;41.936;25.556;2023-02-20T04:30:50;14.70;;;13.37;;
11514;SDS011;5814;41.936;25.556;2023-02-20T04:33:17;61.70;;;42.10;;
11514;SDS011;5814;41.936;25.556;2023-02-20T04:35:44;36.23;;;25.23;;
11514;SDS011;5814;41.936;25.556;2023-02-20T04:38:12;15.53;;;14.13;;
11514;SDS011;5814;41.936;25.556;2023-02-20T04:40:39;15.00;;;13.77;;
11514;SDS011;5814;41.936;25.556;2023-02-20T04:43:06;13.57;;;12.57;;
11514;SDS011;5814;41.936;25.556;2023-02-20T04:45:33;13.17;;;12.13;;
11514;SDS011;5814;41.936;25.556;2023-02-20T04:48:00;11.30;;;10.50;;
11514;SDS011;5814;41.936;25.556;2023-02-20T04:50:29;12.50;;;11.50;;
11514;SDS011;5814;41.936;25.556;2023-02-20T04:52:57;13.80;;;12.40;;
11514;SDS011;5814;41.936;25.556;2023-02-20T04:55:24;12.17;;;11.07;;
11514;SDS011;5814;41.936;25.556;2023-02-20T04:57:51;11.97;;;10.97;;
11514;SDS011;5814;41.936;25.556;2023-02-20T05:00:19;11.50;;;10.53;;
11514;SDS011;5814;41.936;25.556;2023-02-20T05:02:46;13.07;;;11.40;;
11514;SDS011;5814;41.936;25.556;2023-02-20T05:05:18;17.13;;;13.23;;
11514;SDS011;5814;41.936;25.556;2023-02-20T05:07:43;12.60;;;11.43;;
11514;SDS011;5814;41.936;25.556;2023-02-20T05:10:12;15.90;;;14.20;;
11514;SDS011;5814;41.936;25.556;2023-02-20T05:12:38;18.70;;;17.00;;
11514;SDS011;5814;41.936;25.556;2023-02-20T05:15:06;12.00;;;10.90;;
11514;SDS011;5814;41.936;25.556;2023-02-20T05:17:33;12.70;;;11.80;;
11514;SDS011;5814;41.936;25.556;2023-02-20T05:20:00;13.23;;;12.00;;
11514;SDS011;5814;41.936;25.556;2023-02-20T05:22:27;12.80;;;12.00;;
11514;SDS011;5814;41.936;25.556;2023-02-20T05:24:55;12.20;;;11.20;;
11514;SDS011;5814;41.936;25.556;2023-02-20T05:27:22;12.47;;;11.47;;
11514;SDS011;5814;41.936;25.556;2023-02-20T05:29:51;12.80;;;11.60;;
11514;SDS011;5814;41.936;25.556;2023-02-20T05:32:17;12.97;;;10.10;;
11514;SDS011;5814;41.936;25.556;2023-02-20T05:34:44;14.07;;;12.90;;
11514;SDS011;5814;41.936;25.556;2023-02-20T05:37:12;14.13;;;12.67;;
11514;SDS011;5814;41.936;25.556;2023-02-20T05:39:39;10.83;;;10.03;;
11514;SDS011;5814;41.936;25.556;2023-02-20T05:42:06;11.67;;;10.60;;
11514;SDS011;5814;41.936;25.556;2023-02-20T05:44:33;15.00;;;13.70;;
11514;SDS011;5814;41.936;25.556;2023-02-20T05:47:01;12.53;;;11.63;;
11514;SDS011;5814;41.936;25.556;2023-02-20T05:49:28;12.57;;;11.57;;
11514;SDS011;5814;41.936;25.556;2023-02-20T05:51:55;10.87;;;9.97;;
11514;SDS011;5814;41.936;25.556;2023-02-20T05:54:22;10.50;;;9.63;;
11514;SDS011;5814;41.936;25.556;2023-02-20T05:56:49;10.13;;;9.30;;
11514;SDS011;5814;41.936;25.556;2023-02-20T05:59:18;10.17;;;9.47;;
11514;SDS011;5814;41.936;25.556;2023-02-20T06:01:44;9.20;;;8.50;;
11514;SDS011;5814;41.936;25.556;2023-02-20T06:04:11;8.20;;;7.40;;
11514;SDS011;5814;41.936;25.556;2023-02-20T06:06:39;8.10;;;6.80;;
11514;SDS011;5814;41.936;25.556;2023-02-20T06:09:07;11.97;;;8.93;;
11514;SDS011;5814;41.936;25.556;2023-02-20T06:11:33;12.80;;;8.30;;
11514;SDS011;5814;41.936;25.556;2023-02-20T06:14:00;9.07;;;7.97;;
11514;SDS011;5814;41.936;25.556;2023-02-20T06:16:28;6.73;;;6.20;;
11514;SDS011;5814;41.936;25.556;2023-02-20T06:18:55;8.87;;;7.43;;
11514;SDS011;5814;41.936;25.556;2023-02-20T06:21:23;7.37;;;6.87;;
11514;SDS011;5814;41.936;25.556;2023-02-20T06:23:49;7.60;;;5.40;;
11514;SDS011;5814;41.936;25.556;2023-02-20T06:26:16;7.40;;;6.63;;
11514;SDS011;5814;41.936;25.556;2023-02-20T06:28:43;8.57;;;7.97;;
11514;SDS011;5814;41.936;25.556;2023-02-20T06:31:10;7.13;;;6.07;;
11514;SDS011;5814;41.936;25.556;2023-02-20T06:33:38;8.27;;;6.53;;
11514;SDS011;5814;41.936;25.556;2023-02-20T06:36:05;13.80;;;5.97;;
11514;SDS011;5814;41.936;25.556;2023-02-20T06:38:33;8.30;;;7.37;;
11514;SDS011;5814;41.936;25.556;2023-02-20T06:41:00;8.63;;;7.83;;
11514;SDS011;5814;41.936;25.556;2023-02-20T06:43:27;8.70;;;5.80;;
11514;SDS011;5814;41.936;25.556;2023-02-20T06:45:54;5.47;;;4.97;;
11514;SDS011;5814;41.936;25.556;2023-02-20T06:48:22;8.77;;;5.83;;
11514;SDS011;5814;41.936;25.556;2023-02-20T06:50:49;4.63;;;4.27;;
11514;SDS011;5814;41.936;25.556;2023-02-20T06:53:16;14.07;;;4.80;;
11514;SDS011;5814;41.936;25.556;2023-02-20T06:55:43;5.40;;;4.90;;
11514;SDS011;5814;41.936;25.556;2023-02-20T06:58:10;8.03;;;5.53;;
11514;SDS011;5814;41.936;25.556;2023-02-20T07:00:38;9.80;;;6.80;;
11514;SDS011;5814;41.936;25.556;2023-02-20T07:03:05;6.50;;;5.70;;
11514;SDS011;5814;41.936;25.556;2023-02-20T07:05:32;7.90;;;7.30;;
11514;SDS011;5814;41.936;25.556;2023-02-20T07:07:59;12.90;;;5.83;;
11514;SDS011;5814;41.936;25.556;2023-02-20T07:10:26;12.03;;;7.13;;
11514;SDS011;5814;41.936;25.556;2023-02-20T07:12:53;10.33;;;6.20;;
11514;SDS011;5814;41.936;25.556;2023-02-20T07:15:21;9.70;;;8.93;;
11514;SDS011;5814;41.936;25.556;2023-02-20T07:17:48;12.30;;;9.40;;
11514;SDS011;5814;41.936;25.556;2023-02-20T07:20:15;7.40;;;6.40;;
11514;SDS011;5814;41.936;25.556;2023-02-20T07:22:48;6.10;;;5.60;;
11514;SDS011;5814;41.936;25.556;2023-02-20T07:25:15;7.30;;;5.07;;
11514;SDS011;5814;41.936;25.556;2023-02-20T07:27:42;6.97;;;4.93;;
11514;SDS011;5814;41.936;25.556;2023-02-20T07:30:10;5.20;;;4.70;;
11514;SDS011;5814;41.936;25.556;2023-02-20T07:32:38;9.97;;;5.13;;
11514;SDS011;5814;41.936;25.556;2023-02-20T07:35:05;6.80;;;5.00;;
11514;SDS011;5814;41.936;25.556;2023-02-20T07:37:33;5.20;;;4.90;;
11514;SDS011;5814;41.936;25.556;2023-02-20T07:40:00;6.73;;;6.13;;
11514;SDS011;5814;41.936;25.556;2023-02-20T07:42:27;6.60;;;5.67;;
11514;SDS011;5814;41.936;25.556;2023-02-20T07:44:54;12.17;;;6.83;;
11514;SDS011;5814;41.936;25.556;2023-02-20T07:47:22;7.47;;;6.60;;
11514;SDS011;5814;41.936;25.556;2023-02-20T07:49:49;5.80;;;5.27;;
11514;SDS011;5814;41.936;25.556;2023-02-20T07:52:16;7.93;;;6.47;;
11514;SDS011;5814;41.936;25.556;2023-02-20T07:54:43;9.80;;;4.63;;
11514;SDS011;5814;41.936;25.556;2023-02-20T07:57:10;5.93;;;5.30;;
11514;SDS011;5814;41.936;25.556;2023-02-20T07:59:38;6.70;;;6.10;;
11514;SDS011;5814;41.936;25.556;2023-02-20T08:02:05;7.70;;;5.60;;
11514;SDS011;5814;41.936;25.556;2023-02-20T08:04:32;7.17;;;5.10;;
11514;SDS011;5814;41.936;25.556;2023-02-20T08:06:59;6.20;;;5.60;;
11514;SDS011;5814;41.936;25.556;2023-02-20T08:09:26;16.87;;;7.13;;
11514;SDS011;5814;41.936;25.556;2023-02-20T08:11:54;5.13;;;4.57;;
11514;SDS011;5814;41.936;25.556;2023-02-20T08:14:21;6.77;;;5.10;;
11514;SDS011;5814;41.936;25.556;2023-02-20T08:16:48;8.00;;;5.70;;
11514;SDS011;5814;41.936;25.556;2023-02-20T08:19:15;7.75;;;5.87;;
11514;SDS011;5814;41.936;25.556;2023-02-20T08:21:42;5.83;;;5.23;;
11514;SDS011;5814;41.936;25.556;2023-02-20T08:24:10;10.45;;;7.00;;
11514;SDS011;5814;41.936;25.556;2023-02-20T08:26:42;11.67;;;7.63;;
11514;SDS011;5814;41.936;25.556;2023-02-20T08:29:08;6.47;;;5.78;;
11514;SDS011;5814;41.936;25.556;2023-02-20T08:31:35;10.30;;;6.50;;
11514;SDS011;5814;41.936;25.556;2023-02-20T08:34:03;6.07;;;4.77;;
11514;SDS011;5814;41.936;25.556;2023-02-20T08:36:30;5.40;;;4.78;;
11514;SDS011;5814;41.936;25.556;2023-02-20T08:38:57;9.50;;;7.60;;
11514;SDS011;5814;41.936;25.556;2023-02-20T08:41:24;6.30;;;5.80;;
11514;SDS011;5814;41.936;25.556;2023-02-20T08:43:51;5.60;;;5.30;;
11514;SDS011;5814;41.936;25.556;2023-02-20T08:46:18;9.75;;;7.15;;
11514;SDS011;5814;41.936;25.556;2023-02-20T08:48:46;7.28;;;6.47;;
11514;SDS011;5814;41.936;25.556;2023-02-20T08:51:16;11.12;;;5.80;;
11514;SDS011;5814;41.936;25.556;2023-02-20T08:53:40;5.73;;;5.10;;
11514;SDS011;5814;41.936;25.556;2023-02-20T08:56:08;6.25;;;4.07;;
11514;SDS011;5814;41.936;25.556;2023-02-20T08:58:35;6.32;;;5.18;;
11514;SDS011;5814;41.936;25.556;2023-02-20T09:01:02;15.77;;;5.83;;
11514;SDS011;5814;41.936;25.556;2023-02-20T09:03:30;8.60;;;5.93;;
11514;SDS011;5814;41.936;25.556;2023-02-20T09:05:56;7.28;;;5.30;;
11514;SDS011;5814;41.936;25.556;2023-02-20T09:08:24;12.27;;;6.70;;
11514;SDS011;5814;41.936;25.556;2023-02-20T09:10:51;8.68;;;7.22;;
11514;SDS011;5814;41.936;25.556;2023-02-20T09:13:18;11.07;;;6.97;;
11514;SDS011;5814;41.936;25.556;2023-02-20T09:15:46;5.85;;;4.75;;
11514;SDS011;5814;41.936;25.556;2023-02-20T09:18:13;7.85;;;4.75;;
11514;SDS011;5814;41.936;25.556;2023-02-20T09:20:40;8.05;;;6.30;;
11514;SDS011;5814;41.936;25.556;2023-02-20T09:23:07;14.05;;;5.60;;
11514;SDS011;5814;41.936;25.556;2023-02-20T09:25:34;11.65;;;5.10;;
11514;SDS011;5814;41.936;25.556;2023-02-20T09:28:01;5.62;;;5.07;;
11514;SDS011;5814;41.936;25.556;2023-02-20T09:30:29;5.03;;;4.62;;
11514;SDS011;5814;41.936;25.556;2023-02-20T09:32:56;5.40;;;5.10;;
11514;SDS011;5814;41.936;25.556;2023-02-20T09:35:25;5.80;;;4.60;;
11514;SDS011;5814;41.936;25.556;2023-02-20T09:37:51;8.32;;;6.53;;
11514;SDS011;5814;41.936;25.556;2023-02-20T09:40:22;12.80;;;5.40;;
11514;SDS011;5814;41.936;25.556;2023-02-20T09:42:53;5.70;;;5.20;;
11514;SDS011;5814;41.936;25.556;2023-02-20T09:45:20;5.57;;;4.53;;
11514;SDS011;5814;41.936;25.556;2023-02-20T09:55:45;4.50;;;4.20;;
11514;SDS011;5814;41.936;25.556;2023-02-20T09:58:19;5.28;;;4.87;;
11514;SDS011;5814;41.936;25.556;2023-02-20T10:00:45;4.80;;;4.50;;
11514;SDS011;5814;41.936;25.556;2023-02-20T10:03:16;5.40;;;4.90;;
11514;SDS011;5814;41.936;25.556;2023-02-20T10:05:45;5.10;;;4.75;;
11514;SDS011;5814;41.936;25.556;2023-02-20T10:08:21;4.53;;;4.30;;
11514;SDS011;5814;41.936;25.556;2023-02-20T10:10:50;6.37;;;5.75;;
11514;SDS011;5814;41.936;25.556;2023-02-20T10:14:27;6.40;;;6.07;;
11514;SDS011;5814;41.936;25.556;2023-02-20T10:16:05;8.77;;;6.45;;
11514;SDS011;5814;41.936;25.556;2023-02-20T10:18:34;5.57;;;5.20;;
11514;SDS011;5814;41.936;25.556;2023-02-20T10:21:04;6.18;;;5.28;;
11514;SDS011;5814;41.936;25.556;2023-02-20T10:23:35;6.80;;;5.80;;
11514;SDS011;5814;41.936;25.556;2023-02-20T10:26:05;5.32;;;4.93;;
11514;SDS011;5814;41.936;25.556;2023-02-20T10:28:31;4.22;;;3.92;;
11514;SDS011;5814;41.936;25.556;2023-02-20T10:31:00;4.90;;;4.50;;
11514;SDS011;5814;41.936;25.556;2023-02-20T10:33:32;6.95;;;6.35;;
11514;SDS011;5814;41.936;25.556;2023-02-20T10:36:01;5.62;;;5.32;;
11514;SDS011;5814;41.936;25.556;2023-02-20T10:38:46;5.72;;;5.32;;
11514;SDS011;5814;41.936;25.556;2023-02-20T10:46:39;5.90;;;5.40;;
11514;SDS011;5814;41.936;25.556;2023-02-20T10:49:06;6.37;;;5.87;;
11514;SDS011;5814;41.936;25.556;2023-02-20T10:51:35;6.07;;;5.57;;
11514;SDS011;5814;41.936;25.556;2023-02-20T10:54:03;5.10;;;4.80;;
11514;SDS011;5814;41.936;25.556;2023-02-20T10:56:32;5.22;;;4.70;;
11514;SDS011;5814;41.936;25.556;2023-02-20T10:59:32;6.20;;;5.50;;
11514;SDS011;5814;41.936;25.556;2023-02-20T11:01:45;6.35;;;5.68;;
11514;SDS011;5814;41.936;25.556;2023-02-20T11:04:14;7.03;;;5.75;;
11514;SDS011;5814;41.936;25.556;2023-02-20T11:06:43;4.95;;;4.65;;
11514;SDS011;5814;41.936;25.556;2023-02-20T11:09:10;5.65;;;5.25;;
11514;SDS011;5814;41.936;25.556;2023-02-20T11:11:38;4.78;;;4.47;;
11514;SDS011;5814;41.936;25.556;2023-02-20T11:14:10;8.18;;;7.47;;
11514;SDS011;5814;41.936;25.556;2023-02-20T11:16:35;6.93;;;6.10;;
11514;SDS011;5814;41.936;25.556;2023-02-20T11:19:04;6.43;;;5.82;;
11514;SDS011;5814;41.936;25.556;2023-02-20T11:21:33;5.97;;;5.50;;
11514;SDS011;5814;41.936;25.556;2023-02-20T11:24:08;5.30;;;5.00;;
11514;SDS011;5814;41.936;25.556;2023-02-20T11:26:28;6.65;;;5.97;;
11514;SDS011;5814;41.936;25.556;2023-02-20T11:28:55;6.18;;;5.57;;
11514;SDS011;5814;41.936;25.556;2023-02-20T11:31:23;6.35;;;5.85;;
11514;SDS011;5814;41.936;25.556;2023-02-20T11:33:51;6.72;;;5.47;;
11514;SDS011;5814;41.936;25.556;2023-02-20T11:36:21;6.28;;;5.87;;
11514;SDS011;5814;41.936;25.556;2023-02-20T11:38:46;5.75;;;5.35;;
11514;SDS011;5814;41.936;25.556;2023-02-20T11:41:20;4.80;;;4.60;;
11514;SDS011;5814;41.936;25.556;2023-02-20T11:43:48;5.43;;;5.00;;
11514;SDS011;5814;41.936;25.556;2023-02-20T11:46:16;4.87;;;4.50;;
11514;SDS011;5814;41.936;25.556;2023-02-20T11:49:02;7.60;;;5.47;;
11514;SDS011;5814;41.936;25.556;2023-02-20T11:54:07;5.35;;;4.95;;
11514;SDS011;5814;41.936;25.556;2023-02-20T11:56:53;5.60;;;5.10;;
11514;SDS011;5814;41.936;25.556;2023-02-20T11:59:36;7.35;;;5.43;;
11514;SDS011;5814;41.936;25.556;2023-02-20T12:02:11;5.32;;;4.65;;
11514;SDS011;5814;41.936;25.556;2023-02-20T12:04:38;6.62;;;6.20;;
11514;SDS011;5814;41.936;25.556;2023-02-20T12:09:45;6.10;;;5.62;;
11514;SDS011;5814;41.936;25.556;2023-02-20T12:12:12;5.68;;;5.28;;
11514;SDS011;5814;41.936;25.556;2023-02-20T12:14:39;5.47;;;5.07;;
11514;SDS011;5814;41.936;25.556;2023-02-20T12:17:24;5.72;;;5.43;;
11514;SDS011;5814;41.936;25.556;2023-02-20T12:19:59;6.35;;;5.60;;
11514;SDS011;5814;41.936;25.556;2023-02-20T12:22:28;5.03;;;4.72;;
11514;SDS011;5814;41.936;25.556;2023-02-20T12:25:07;5.25;;;4.82;;
11514;SDS011;5814;41.936;25.556;2023-02-20T12:27:42;5.20;;;4.90;;
11514;SDS011;5814;41.936;25.556;2023-02-20T12:30:44;5.28;;;5.00;;
11514;SDS011;5814;41.936;25.556;2023-02-20T12:32:59;4.93;;;4.53;;
11514;SDS011;5814;41.936;25.556;2023-02-20T12:35:30;4.50;;;4.30;;
11514;SDS011;5814;41.936;25.556;2023-02-20T12:38:01;4.43;;;4.22;;
11514;SDS011;5814;41.936;25.556;2023-02-20T12:40:30;4.78;;;4.57;;
11514;SDS011;5814;41.936;25.556;2023-02-20T12:43:16;6.82;;;4.97;;
11514;SDS011;5814;41.936;25.556;2023-02-20T12:45:40;5.22;;;5.03;;
11514;SDS011;5814;41.936;25.556;2023-02-20T12:48:16;5.25;;;4.95;;
11514;SDS011;5814;41.936;25.556;2023-02-20T12:50:39;5.70;;;5.18;;
11514;SDS011;5814;41.936;25.556;2023-02-20T12:53:15;5.93;;;5.53;;
11514;SDS011;5814;41.936;25.556;2023-02-20T12:58:34;5.82;;;5.50;;
11514;SDS011;5814;41.936;25.556;2023-02-20T13:00:59;5.90;;;5.60;;
11514;SDS011;5814;41.936;25.556;2023-02-20T13:03:34;5.10;;;4.78;;
11514;SDS011;5814;41.936;25.556;2023-02-20T13:09:02;5.85;;;5.45;;
11514;SDS011;5814;41.936;25.556;2023-02-20T13:11:29;4.95;;;4.65;;
11514;SDS011;5814;41.936;25.556;2023-02-20T13:17:02;5.05;;;4.53;;
11514;SDS011;5814;41.936;25.556;2023-02-20T13:19:29;5.37;;;5.07;;
11514;SDS011;5814;41.936;25.556;2023-02-20T13:21:56;6.20;;;5.77;;
11514;SDS011;5814;41.936;25.556;2023-02-20T13:24:29;6.43;;;5.87;;
11514;SDS011;5814;41.936;25.556;2023-02-20T13:26:55;6.30;;;5.25;;
11514;SDS011;5814;41.936;25.556;2023-02-20T13:29:26;5.62;;;5.22;;
11514;SDS011;5814;41.936;25.556;2023-02-20T13:31:55;5.78;;;5.57;;
11514;SDS011;5814;41.936;25.556;2023-02-20T13:34:27;6.47;;;6.07;;
11514;SDS011;5814;41.936;25.556;2023-02-20T13:36:54;6.65;;;6.25;;
11514;SDS011;5814;41.936;25.556;2023-02-20T13:39:25;5.90;;;5.50;;
11514;SDS011;5814;41.936;25.556;2023-02-20T13:41:57;5.97;;;5.32;;
11514;SDS011;5814;41.936;25.556;2023-02-20T13:44:43;5.10;;;4.40;;
11514;SDS011;5814;41.936;25.556;2023-02-20T13:47:27;4.30;;;4.12;;
11514;SDS011;5814;41.936;25.556;2023-02-20T13:49:53;4.70;;;4.30;;
11514;SDS011;5814;41.936;25.556;2023-02-20T13:55:00;4.60;;;4.30;;
11514;SDS011;5814;41.936;25.556;2023-02-20T13:57:26;4.80;;;4.50;;
11514;SDS011;5814;41.936;25.556;2023-02-20T13:59:53;4.53;;;4.32;;
11514;SDS011;5814;41.936;25.556;2023-02-20T14:02:21;4.10;;;3.80;;
11514;SDS011;5814;41.936;25.556;2023-02-20T14:04:58;5.37;;;5.07;;
11514;SDS011;5814;41.936;25.556;2023-02-20T14:07:29;4.80;;;4.60;;
11514;SDS011;5814;41.936;25.556;2023-02-20T14:10:05;4.97;;;4.78;;
11514;SDS011;5814;41.936;25.556;2023-02-20T14:12:31;4.70;;;4.40;;
11514;SDS011;5814;41.936;25.556;2023-02-20T14:14:58;4.87;;;4.47;;
11514;SDS011;5814;41.936;25.556;2023-02-20T14:17:25;4.90;;;4.50;;
11514;SDS011;5814;41.936;25.556;2023-02-20T14:19:54;5.80;;;4.53;;
11514;SDS011;5814;41.936;25.556;2023-02-20T14:22:24;5.00;;;4.60;;
11514;SDS011;5814;41.936;25.556;2023-02-20T14:27:28;5.57;;;5.28;;
11514;SDS011;5814;41.936;25.556;2023-02-20T14:32:31;6.47;;;5.90;;
11514;SDS011;5814;41.936;25.556;2023-02-20T14:35:07;5.50;;;5.10;;
11514;SDS011;5814;41.936;25.556;2023-02-20T14:37:33;5.40;;;5.00;;
11514;SDS011;5814;41.936;25.556;2023-02-20T14:40:16;5.78;;;5.28;;
11514;SDS011;5814;41.936;25.556;2023-02-20T14:42:44;5.97;;;5.47;;
11514;SDS011;5814;41.936;25.556;2023-02-20T14:45:16;7.53;;;5.50;;
11514;SDS011;5814;41.936;25.556;2023-02-20T14:47:49;5.55;;;5.20;;
11514;SDS011;5814;41.936;25.556;2023-02-20T14:50:18;5.50;;;4.72;;
11514;SDS011;5814;41.936;25.556;2023-02-20T14:52:44;5.40;;;5.10;;
11514;SDS011;5814;41.936;25.556;2023-02-20T14:55:15;5.70;;;5.30;;
11514;SDS011;5814;41.936;25.556;2023-02-20T14:57:41;5.07;;;4.78;;
11514;SDS011;5814;41.936;25.556;2023-02-20T15:00:20;4.72;;;4.45;;
11514;SDS011;5814;41.936;25.556;2023-02-20T15:02:40;5.35;;;4.80;;
11514;SDS011;5814;41.936;25.556;2023-02-20T15:05:07;4.78;;;4.55;;
11514;SDS011;5814;41.936;25.556;2023-02-20T15:07:34;4.93;;;4.63;;
11514;SDS011;5814;41.936;25.556;2023-02-20T15:10:03;5.07;;;4.80;;
11514;SDS011;5814;41.936;25.556;2023-02-20T15:12:31;5.20;;;4.90;;
11514;SDS011;5814;41.936;25.556;2023-02-20T15:15:01;4.90;;;4.50;;
11514;SDS011;5814;41.936;25.556;2023-02-20T15:17:29;4.90;;;4.70;;
11514;SDS011;5814;41.936;25.556;2023-02-20T15:19:56;5.33;;;5.03;;
11514;SDS011;5814;41.936;25.556;2023-02-20T15:22:24;5.47;;;5.17;;
11514;SDS011;5814;41.936;25.556;2023-02-20T15:24:50;5.82;;;5.28;;
11514;SDS011;5814;41.936;25.556;2023-02-20T15:27:18;6.07;;;5.60;;